Airfield :
LOGIN :

Register | Disclaimer

   EN    FR    IT 

 










Legend :    VFR   Marginal VFR   IFR   Intensive IFR   Very Intensive IFR
Visi :
Ceiling :
>= 8 km
>= 3000ft
5 to 8 km
1000 to 3000 ft
1500m to 5 km
500 to 1000 ft
800 to 1500m
200 to 500 ft
< 800m
< 200 ft
Symbols :   Thunderstorms  Fog  Heavy snow  Heavy precipitations  Wind > 20 kt
SIGMETs :     Misc.  Thunderstorms  Icing  Turbulence  Mountain Waves  Volcanic Ashes







- Airport Elevation : 297 ft
- IATA code : UIP
- Download approach charts


LFRQ - Quimper Pluguffan

CURRENT METAR :
  • 171230Z AUTO 32012KT 280V340 9999 BKN034 BKN043 22/13 Q1017 NOSIG

EXPIRED METARs :
  • 171200Z AUTO 32012KT 290V360 9999 BKN035 22/12 Q1017 NOSIG
  • 171130Z AUTO 33011KT 290V360 9999 FEW037 22/12 Q1017 NOSIG
  • 171100Z AUTO 30010KT 270V340 9999 FEW034 BKN040 21/12 Q1017 NOSIG
  • 171030Z AUTO 31009KT 280V350 9999 FEW036 21/12 Q1017 NOSIG
  • 171000Z AUTO 31010KT 270V340 9999 FEW028 BKN035 21/13 Q1017 NOSIG

TAF TAF LFRQ
Valid from the 17 at 12:00 until the 18 at 12:00 UTC


171100Z 1712/1812 31006KT 9999 SCT025 SCT030
BECMG 1721/1724 23010KT BKN014
TEMPO 1800/1808 RA OVC008
BECMG 1809/1812 BKN020
No reported NOTAMs for that airfield.



MET'MAP, your aeronautical weather chart ! - Copyright ORBIFLY December 2007 - Disclaimer

ORBIFLY MET'MAP TEAM :

Programming & Development : Alexandra Zaïnal
Concept & Development : Baudouin d'Aumeries
Co-Development & Prog : Marc-Olivier Méhu
Technical & hardware support : Manuel Goepfert

Contact : metmap@orbifly.com




SOURCES & CREDITS :

   NOAA